Time;durP1;ratioP1;P1;durP2;ratioP2;P2;SDS_P1;SDS_P2;PMS_P1;PMS_P2;Temp;Humidity;BMP_temperature;BMP_pressure;BME280_temperature;BME280_humidity;BME280_pressure;Samples;Min_cycle;Max_cycle;Signal;HPM_P1;HPM_P2
2023/03/24 00:01:56;;;;;;;5.27;2.10;;;;;;;12.46;100.00;95397.59;4966535;28;20026;-89
2023/03/24 00:04:26;;;;;;;6.27;2.00;;;;;;;12.39;100.00;95401.22;4981665;28;20035;-88
2023/03/24 00:06:52;;;;;;;5.20;2.20;;;;;;;12.38;100.00;95404.84;4972740;28;20042;-88
2023/03/24 00:09:22;;;;;;;4.80;2.40;;;;;;;12.42;100.00;95399.00;4949690;28;20035;-88
2023/03/24 00:11:48;;;;;;;5.23;2.20;;;;;;;12.45;100.00;95403.91;4958573;28;20094;-88
2023/03/24 00:14:13;;;;;;;4.00;2.10;;;;;;;12.48;100.00;95415.91;4953330;28;20035;-88
2023/03/24 00:16:44;;;;;;;4.70;2.17;;;;;;;12.49;100.00;95413.06;4968750;28;20036;-88
2023/03/24 00:19:12;;;;;;;4.67;2.10;;;;;;;12.59;100.00;95411.91;4998805;28;20049;-89
2023/03/24 00:21:38;;;;;;;5.43;2.20;;;;;;;12.64;100.00;95433.25;4977053;28;20345;-88
2023/03/24 00:24:17;;;;;;;5.60;2.50;;;;;;;12.70;100.00;95420.09;4940144;28;20027;-88
2023/03/24 00:26:43;;;;;;;6.73;2.63;;;;;;;12.66;100.00;95436.50;4964408;28;20034;-89
2023/03/24 00:29:10;;;;;;;7.23;2.80;;;;;;;12.67;100.00;95446.03;4949711;28;20485;-89
2023/03/24 00:31:45;;;;;;;4.97;2.50;;;;;;;12.67;100.00;95440.78;4951256;28;20019;-88
2023/03/24 00:34:12;;;;;;;4.77;2.63;;;;;;;12.71;100.00;95447.31;4946616;29;20090;-89
2023/03/24 00:36:38;;;;;;;5.17;2.70;;;;;;;12.68;100.00;95442.44;4977795;28;20050;-88
2023/03/24 00:39:07;;;;;;;8.93;2.63;;;;;;;12.56;100.00;95434.19;4971546;28;20110;-88
2023/03/24 00:41:33;;;;;;;7.63;2.80;;;;;;;12.46;100.00;95418.72;4956694;28;20043;-89
2023/03/24 00:44:02;;;;;;;7.20;3.20;;;;;;;12.36;100.00;95427.94;4982306;28;20030;-88
2023/03/24 00:46:28;;;;;;;6.03;3.10;;;;;;;12.36;100.00;95425.31;4938213;29;20074;-88
2023/03/24 00:49:04;;;;;;;5.63;3.23;;;;;;;12.31;100.00;95425.91;4971020;28;20035;-88
2023/03/24 00:51:34;;;;;;;6.63;3.17;;;;;;;12.30;100.00;95418.97;4966164;28;20041;-88
2023/03/24 00:54:00;;;;;;;5.07;2.97;;;;;;;12.16;100.00;95419.88;4984785;28;20031;-88
2023/03/24 00:56:42;;;;;;;5.07;2.90;;;;;;;12.14;100.00;95414.78;4972860;28;20485;-88
2023/03/24 00:59:08;;;;;;;5.67;3.00;;;;;;;12.10;100.00;95412.72;4976941;28;20027;-89
2023/03/24 01:01:37;;;;;;;7.27;2.97;;;;;;;12.13;100.00;95402.59;4962137;28;20189;-88
2023/03/24 01:04:04;;;;;;;5.20;2.80;;;;;;;12.09;100.00;95404.00;4972949;28;20038;-88
2023/03/24 01:06:40;;;;;;;5.97;3.37;;;;;;;12.06;100.00;95395.66;4961942;28;20117;-89
2023/03/24 01:09:06;;;;;;;6.50;3.33;;;;;;;11.98;100.00;95407.13;4960659;28;20026;-89
2023/03/24 01:11:37;;;;;;;7.13;3.33;;;;;;;12.05;100.00;95392.19;4983170;28;20186;-89
2023/03/24 01:14:03;;;;;;;6.00;2.83;;;;;;;12.01;100.00;95389.13;4949378;28;20694;-89
2023/03/24 01:16:30;;;;;;;6.97;3.07;;;;;;;12.05;100.00;95381.66;4962552;28;20034;-88
2023/03/24 01:19:03;;;;;;;5.93;3.43;;;;;;;11.99;100.00;95375.31;4966730;28;20031;-88
2023/03/24 01:21:30;;;;;;;6.07;3.15;;;;;;;11.95;100.00;95376.72;4980186;28;20014;-89
2023/03/24 01:23:56;;;;;;;5.73;2.50;;;;;;;11.91;100.00;95375.47;4965998;28;20411;-89
2023/03/24 01:26:31;;;;;;;5.77;3.50;;;;;;;11.83;100.00;95366.81;4951681;28;20126;-89
2023/03/24 01:28:57;;;;;;;6.20;3.23;;;;;;;11.79;100.00;95359.28;4977103;28;20027;-89
2023/03/24 01:31:26;;;;;;;5.33;2.90;;;;;;;11.85;100.00;95359.59;4949513;29;20034;-89
2023/03/24 01:33:51;;;;;;;5.13;3.10;;;;;;;11.80;100.00;95350.41;4966437;28;20042;-89
2023/03/24 01:36:17;;;;;;;5.67;3.10;;;;;;;11.84;100.00;95342.97;4972315;28;20091;-89
2023/03/24 01:38:43;;;;;;;6.03;2.97;;;;;;;11.89;100.00;95343.19;4978230;28;20121;-89
2023/03/24 01:41:09;;;;;;;5.17;2.90;;;;;;;11.80;100.00;95339.03;4962568;28;20406;-89
2023/03/24 01:43:35;;;;;;;6.60;2.90;;;;;;;11.80;100.00;95334.59;4956479;28;20042;-88
2023/03/24 01:46:04;;;;;;;4.97;2.80;;;;;;;11.83;100.00;95325.47;4971964;28;20023;-89
2023/03/24 01:48:42;;;;;;;5.97;3.00;;;;;;;11.80;100.00;95310.91;4968708;28;20086;-89
2023/03/24 01:51:34;;;;;;;8.30;3.03;;;;;;;11.83;100.00;95314.94;4943408;28;20037;-88
2023/03/24 01:54:03;;;;;;;4.67;2.67;;;;;;;11.80;100.00;95300.34;4951813;28;20089;-88
2023/03/24 01:56:32;;;;;;;4.57;2.80;;;;;;;11.82;100.00;95294.88;4959929;28;20034;-89
2023/03/24 01:59:02;;;;;;;5.47;2.93;;;;;;;11.86;100.00;95296.16;4961562;28;20097;-88
2023/03/24 02:01:37;;;;;;;5.17;2.50;;;;;;;11.88;100.00;95288.91;4981701;28;20034;-89
2023/03/24 02:04:26;;;;;;;6.03;2.80;;;;;;;11.98;100.00;95284.09;4948562;29;20035;-89
2023/03/24 02:07:07;;;;;;;6.15;3.00;;;;;;;12.24;100.00;95277.41;4934870;29;20406;-89
2023/03/24 02:09:34;;;;;;;6.70;3.17;;;;;;;12.37;100.00;95274.81;4967359;28;20059;-88
2023/03/24 02:12:01;;;;;;;5.17;2.90;;;;;;;12.37;100.00;95272.19;4933781;29;20046;-88
2023/03/24 02:14:29;;;;;;;7.07;2.57;;;;;;;12.46;100.00;95264.94;4925755;29;20044;-89
2023/03/24 02:17:12;;;;;;;4.87;2.80;;;;;;;12.54;100.00;95258.69;4959387;28;20062;-88
2023/03/24 02:20:10;;;;;;;7.28;3.30;;;;;;;12.53;100.00;95255.25;4924015;29;20035;-88
2023/03/24 02:23:14;;;;;;;5.77;2.90;;;;;;;12.52;100.00;95253.63;4928242;29;20043;-88
2023/03/24 02:26:31;;;;;;;7.37;2.83;;;;;;;12.63;100.00;95239.88;4936643;29;20138;-88
2023/03/24 02:29:18;;;;;;;8.10;3.13;;;;;;;12.67;100.00;95254.28;4950914;29;20035;-89
2023/03/24 02:32:38;;;;;;;6.97;2.90;;;;;;;12.68;100.00;95255.13;4947692;28;20035;-88
2023/03/24 02:35:28;;;;;;;7.47;2.83;;;;;;;12.74;100.00;95251.69;4860639;29;20116;-89
2023/03/24 02:38:36;;;;;;;5.13;2.53;;;;;;;12.80;100.00;95239.53;4929170;29;20047;-88
2023/03/24 02:41:14;;;;;;;5.60;2.77;;;;;;;12.78;100.00;95245.03;4932769;29;20560;-88
2023/03/24 02:44:00;;;;;;;4.43;2.50;;;;;;;12.81;100.00;95252.56;4931256;29;20122;-89
2023/03/24 02:46:53;;;;;;;4.50;2.50;;;;;;;12.88;100.00;95248.13;4942756;29;20042;-89
2023/03/24 02:49:33;;;;;;;5.80;2.43;;;;;;;12.91;100.00;95245.09;4947398;29;20159;-88
2023/03/24 02:52:05;;;;;;;4.17;2.20;;;;;;;12.94;100.00;95244.69;4962151;28;20031;-88
2023/03/24 02:54:48;;;;;;;4.80;2.60;;;;;;;13.03;100.00;95236.56;4941319;29;20035;-88
2023/03/24 02:57:13;;;;;;;6.27;2.53;;;;;;;13.02;100.00;95237.59;4924931;29;20032;-89
2023/03/24 03:00:00;;;;;;;5.13;2.73;;;;;;;13.03;100.00;95245.31;4944693;28;20042;-88
2023/03/24 03:03:08;;;;;;;4.47;2.33;;;;;;;13.13;100.00;95237.00;4951560;29;20039;-88
2023/03/24 03:05:41;;;;;;;4.00;2.10;;;;;;;13.14;100.00;95238.63;4950851;29;20147;-88
2023/03/24 03:08:11;;;;;;;4.00;2.55;;;;;;;13.16;100.00;95233.97;4936820;29;20028;-88
2023/03/24 03:10:39;;;;;;;4.43;2.40;;;;;;;13.09;100.00;95241.06;4958177;29;20038;-88
2023/03/24 03:13:29;;;;;;;4.33;2.27;;;;;;;13.11;100.00;95229.31;4968611;29;20028;-88
2023/03/24 03:16:01;;;;;;;4.70;2.43;;;;;;;13.10;100.00;95224.22;4957845;28;20506;-89
2023/03/24 03:18:38;;;;;;;4.60;2.70;;;;;;;13.02;100.00;95227.84;4943529;28;20063;-88
2023/03/24 03:21:11;;;;;;;5.30;2.53;;;;;;;13.01;100.00;95220.13;4935497;29;20031;-88
2023/03/24 03:23:42;;;;;;;5.05;2.50;;;;;;;12.94;100.00;95214.81;4950851;29;20494;-88
2023/03/24 03:26:21;;;;;;;3.70;2.23;;;;;;;12.94;100.00;95220.09;4933510;29;20103;-88
2023/03/24 03:28:56;;;;;;;6.70;2.60;;;;;;;13.02;100.00;95211.22;4933242;29;20043;-88
2023/03/24 03:31:40;;;;;;;4.00;2.23;;;;;;;13.11;100.00;95204.72;4939075;29;20414;-89
2023/03/24 03:34:33;;;;;;;4.50;2.03;;;;;;;13.10;100.00;95208.38;4930126;29;20035;-88
2023/03/24 03:37:15;;;;;;;5.55;2.45;;;;;;;13.14;100.00;95205.13;4926395;29;20036;-89
2023/03/24 03:39:48;;;;;;;5.00;2.60;;;;;;;13.12;100.00;95195.81;4941525;29;20071;-88
2023/03/24 03:42:21;;;;;;;5.27;2.40;;;;;;;13.21;100.00;95200.69;4936204;28;20031;-89
2023/03/24 03:44:47;;;;;;;5.00;1.98;;;;;;;13.19;100.00;95202.72;4932675;29;20032;-88
2023/03/24 03:47:14;;;;;;;4.10;1.97;;;;;;;13.24;100.00;95199.47;4957076;29;20142;-89
2023/03/24 03:49:49;;;;;;;3.43;1.93;;;;;;;13.23;100.00;95203.13;4952241;28;20114;-88
2023/03/24 03:52:16;;;;;;;6.03;2.40;;;;;;;13.28;100.00;95198.09;4943394;29;20066;-88
2023/03/24 03:58:29;;;;;;;5.37;2.10;;;;;;;13.20;100.00;95201.69;4950730;28;20047;-87
2023/03/24 04:00:56;;;;;;;3.33;1.70;;;;;;;13.17;100.00;95196.00;4955676;28;20115;-89
2023/03/24 04:03:45;;;;;;;4.50;2.00;;;;;;;13.16;100.00;95207.56;4946459;29;20067;-88
2023/03/24 04:06:52;;;;;;;4.93;2.00;;;;;;;13.16;100.00;95205.75;4932642;29;20066;-88
2023/03/24 04:09:28;;;;;;;4.00;1.97;;;;;;;13.20;100.00;95212.25;4923611;29;20569;-88
2023/03/24 04:12:38;;;;;;;4.17;2.30;;;;;;;13.13;100.00;95207.97;4937029;29;20416;-89
2023/03/24 04:16:03;;;;;;;5.93;2.70;;;;;;;13.18;100.00;95200.28;4954680;29;20039;-88
2023/03/24 04:19:06;;;;;;;4.83;2.30;;;;;;;13.14;100.00;95199.03;4951362;29;20031;-88
2023/03/24 04:21:50;;;;;;;5.30;2.33;;;;;;;13.15;100.00;95200.69;4944942;29;20042;-88
2023/03/24 04:24:38;;;;;;;4.70;2.03;;;;;;;13.11;100.00;95199.44;4954468;29;20059;-89
2023/03/24 04:27:37;;;;;;;4.27;2.37;;;;;;;13.09;100.00;95191.72;4939465;29;20043;-89
2023/03/24 04:30:22;;;;;;;5.77;2.37;;;;;;;13.09;100.00;95201.47;4948483;28;20067;-89
2023/03/24 04:36:05;;;;;;;3.27;1.80;;;;;;;13.09;100.00;95206.75;5084531;23;20058;-88
2023/03/24 04:38:44;;;;;;;4.87;2.13;;;;;;;13.12;100.00;95201.88;4933485;28;20089;-87
2023/03/24 04:41:30;;;;;;;7.37;3.47;;;;;;;13.17;100.00;95202.09;4954604;28;20562;-87
2023/03/24 04:44:16;;;;;;;5.90;2.60;;;;;;;13.18;100.00;95192.38;4950381;28;20117;-87
2023/03/24 04:47:07;;;;;;;6.37;3.03;;;;;;;13.16;100.00;95199.66;4929320;29;20059;-87
2023/03/24 04:49:37;;;;;;;9.50;3.60;;;;;;;13.12;100.00;95201.88;4928455;29;20027;-87
2023/03/24 04:52:02;;;;;;;8.53;3.73;;;;;;;13.11;100.00;95210.00;4947468;29;20582;-87
2023/03/24 04:54:31;;;;;;;9.57;3.70;;;;;;;13.15;100.00;95211.25;4939090;29;20032;-87
2023/03/24 04:57:04;;;;;;;7.53;3.40;;;;;;;13.14;100.00;95214.88;4947198;29;20020;-86
2023/03/24 04:59:42;;;;;;;8.00;3.10;;;;;;;13.01;100.00;95222.75;4933936;29;20046;-87
2023/03/24 05:02:09;;;;;;;5.77;2.63;;;;;;;12.93;100.00;95218.47;4952001;29;20087;-86
2023/03/24 05:05:22;;;;;;;6.93;3.40;;;;;;;12.80;100.00;95216.59;4928848;28;20068;-88
2023/03/24 05:07:48;;;;;;;6.63;2.90;;;;;;;12.60;100.00;95221.00;4940907;29;20039;-88
2023/03/24 05:10:15;;;;;;;7.07;2.93;;;;;;;12.53;100.00;95212.25;4933119;29;20062;-86
2023/03/24 05:13:04;;;;;;;4.70;2.47;;;;;;;12.32;100.00;95198.16;4935681;29;20031;-88
2023/03/24 05:15:46;;;;;;;4.57;2.40;;;;;;;12.33;100.00;95197.13;4935555;29;20034;-89
2023/03/24 05:18:32;;;;;;;6.37;2.67;;;;;;;12.24;100.00;95206.25;4947562;29;20043;-89
2023/03/24 05:21:06;;;;;;;12.93;3.03;;;;;;;12.21;100.00;95193.44;4939610;29;21100;-89
2023/03/24 05:23:34;;;;;;;4.53;2.60;;;;;;;12.25;100.00;95199.94;4940779;29;20270;-88
2023/03/24 05:26:00;;;;;;;5.73;3.27;;;;;;;12.27;100.00;95201.38;4954739;29;20425;-85
2023/03/24 05:28:29;;;;;;;8.03;4.30;;;;;;;12.18;100.00;95210.44;4929552;29;20504;-87
2023/03/24 05:30:56;;;;;;;6.87;3.43;;;;;;;12.20;100.00;95210.25;4929638;29;20043;-87
2023/03/24 05:33:47;;;;;;;7.50;3.73;;;;;;;12.18;100.00;95212.28;4940214;29;20031;-87
2023/03/24 05:36:16;;;;;;;5.43;2.77;;;;;;;12.25;100.00;95213.13;4956047;29;20031;-87
2023/03/24 05:38:45;;;;;;;6.57;3.00;;;;;;;12.32;100.00;95210.53;4955772;29;20027;-88
2023/03/24 05:41:25;;;;;;;6.77;3.43;;;;;;;12.38;100.00;95210.56;4936574;29;20031;-88
2023/03/24 05:43:50;;;;;;;5.50;2.53;;;;;;;12.53;100.00;95215.69;4935723;29;20031;-87
2023/03/24 05:46:23;;;;;;;5.33;2.43;;;;;;;12.52;100.00;95214.06;4957594;29;20054;-87
2023/03/24 05:48:50;;;;;;;;;;;;;;;12.57;100.00;95224.81;4953294;28;20043;-86
2023/03/24 05:51:18;;;;;;;4.57;2.20;;;;;;;12.59;100.00;95222.00;4953763;28;19918;-87
2023/03/24 05:53:47;;;;;;;4.13;1.83;;;;;;;12.81;100.00;95231.44;4943730;28;20043;-87
2023/03/24 05:56:36;;;;;;;4.13;1.70;;;;;;;13.02;100.00;95222.56;4939549;29;20063;-87
2023/03/24 05:59:21;;;;;;;3.40;1.70;;;;;;;13.21;100.00;95228.91;4939358;29;20046;-88
2023/03/24 06:02:02;;;;;;;3.40;1.37;;;;;;;13.37;100.00;95215.34;4929267;29;20035;-87
2023/03/24 06:04:54;;;;;;;3.20;1.60;;;;;;;13.42;100.00;95252.53;4947816;29;20031;-87
2023/03/24 06:07:25;;;;;;;4.57;1.70;;;;;;;13.43;100.00;95253.34;4946515;28;20071;-87
2023/03/24 06:09:56;;;;;;;4.30;2.00;;;;;;;13.23;100.00;95277.03;4925351;29;20142;-87
2023/03/24 06:12:44;;;;;;;3.53;1.70;;;;;;;13.08;100.00;95289.59;4935233;29;20035;-86
2023/03/24 06:15:16;;;;;;;5.60;1.93;;;;;;;12.81;100.00;95307.13;4928963;29;20028;-87
2023/03/24 06:17:44;;;;;;;3.33;1.42;;;;;;;12.63;100.00;95326.09;4932136;29;20035;-86
2023/03/24 06:20:23;;;;;;;4.37;1.87;;;;;;;12.59;100.00;95332.78;4943215;29;20048;-86
2023/03/24 06:23:04;;;;;;;5.10;1.60;;;;;;;12.48;100.00;95344.69;4939674;29;20031;-86
2023/03/24 06:25:49;;;;;;;3.33;1.67;;;;;;;12.23;100.00;95345.09;4939919;29;20498;-86
2023/03/24 06:28:33;;;;;;;4.00;1.73;;;;;;;12.15;100.00;95365.53;4949462;29;20038;-86
2023/03/24 06:31:13;;;;;;;4.33;1.97;;;;;;;12.04;100.00;95361.59;4924192;29;20890;-86
2023/03/24 06:33:41;;;;;;;4.90;2.10;;;;;;;11.96;100.00;95375.69;4941214;29;20118;-86
2023/03/24 06:36:08;;;;;;;4.40;2.20;;;;;;;11.97;100.00;95379.13;4932755;29;20020;-87
2023/03/24 06:38:37;;;;;;;5.17;2.07;;;;;;;11.75;100.00;95373.03;4932064;29;20048;-86
2023/03/24 06:41:05;;;;;;;3.80;2.17;;;;;;;11.69;100.00;95384.31;4933337;29;20022;-86
2023/03/24 06:43:31;;;;;;;4.57;2.10;;;;;;;11.65;100.00;95380.44;4934896;29;20492;-87
2023/03/24 06:45:58;;;;;;;3.20;2.10;;;;;;;11.68;100.00;95382.69;4954860;28;20040;-87
2023/03/24 06:48:24;;;;;;;4.27;2.40;;;;;;;11.63;100.00;95382.41;4962428;28;20063;-87
2023/03/24 06:50:58;;;;;;;3.23;1.63;;;;;;;11.65;100.00;95380.44;4949116;29;20110;-87
2023/03/24 06:53:24;;;;;;;4.33;2.30;;;;;;;11.69;100.00;95373.78;4943089;29;20478;-87
2023/03/24 06:55:50;;;;;;;3.57;1.90;;;;;;;11.70;100.00;95376.25;4927156;29;20090;-85
2023/03/24 06:58:18;;;;;;;5.63;2.70;;;;;;;11.73;100.00;95385.56;4945364;29;20039;-88
2023/03/24 07:00:54;;;;;;;5.07;2.77;;;;;;;11.84;100.00;95376.34;4947680;29;20047;-88
2023/03/24 07:03:44;;;;;;;7.87;5.00;;;;;;;11.90;100.00;95380.91;4945093;29;20051;-88
2023/03/24 07:06:19;;;;;;;5.13;2.97;;;;;;;12.03;100.00;95381.84;4941955;29;20403;-89
2023/03/24 07:08:50;;;;;;;5.67;2.87;;;;;;;12.26;100.00;95391.38;4943235;29;20035;-88
2023/03/24 07:11:16;;;;;;;4.33;2.50;;;;;;;12.33;100.00;95380.88;4945053;28;20115;-88
2023/03/24 07:13:50;;;;;;;5.93;2.70;;;;;;;12.18;100.00;95383.59;4937791;29;20062;-88
2023/03/24 07:16:15;;;;;;;4.27;2.20;;;;;;;12.25;100.00;95384.47;4930244;29;20062;-88
2023/03/24 07:18:41;;;;;;;5.33;2.37;;;;;;;12.35;100.00;95392.06;4947112;28;20114;-89
2023/03/24 07:21:08;;;;;;;4.50;2.43;;;;;;;12.32;100.00;95395.88;4940728;29;20039;-88
2023/03/24 07:23:37;;;;;;;6.07;2.97;;;;;;;12.25;100.00;95387.91;4937154;29;20042;-88
2023/03/24 07:26:09;;;;;;;6.00;2.60;;;;;;;12.21;100.00;95391.94;4936353;29;20023;-88
2023/03/24 07:28:48;;;;;;;5.43;3.07;;;;;;;12.11;100.00;95385.38;4950683;29;20038;-88
2023/03/24 07:31:47;;;;;;;5.70;2.97;;;;;;;12.15;100.00;95381.34;4951576;29;20090;-88
2023/03/24 07:34:14;;;;;;;4.67;2.47;;;;;;;11.94;100.00;95383.00;4943626;29;20023;-88
2023/03/24 07:36:40;;;;;;;5.67;2.83;;;;;;;11.99;100.00;95380.59;4950530;29;20049;-88
2023/03/24 07:39:15;;;;;;;6.50;3.23;;;;;;;11.92;100.00;95389.44;4953164;28;20036;-89
2023/03/24 07:41:48;;;;;;;7.20;3.10;;;;;;;11.83;100.00;95388.72;4953172;28;20039;-90
2023/03/24 07:44:32;;;;;;;9.38;4.93;;;;;;;11.84;100.00;95397.41;4942607;28;20114;-89
2023/03/24 07:47:04;;;;;;;6.23;3.40;;;;;;;11.98;100.00;95397.41;4940716;29;20046;-90
2023/03/24 07:49:34;;;;;;;9.07;3.50;;;;;;;11.95;100.00;95415.41;4950657;29;20043;-90
2023/03/24 07:52:05;;;;;;;7.50;3.40;;;;;;;11.89;100.00;95410.88;4943510;29;20032;-89
2023/03/24 07:54:42;;;;;;;5.80;3.20;;;;;;;11.88;100.00;95420.63;4940019;29;20095;-90
2023/03/24 07:57:13;;;;;;;5.77;3.43;;;;;;;11.79;100.00;95416.44;4934430;29;20058;-90
2023/03/24 07:59:39;;;;;;;7.57;4.00;;;;;;;11.77;100.00;95424.53;4935620;29;20506;-89
2023/03/24 08:02:18;;;;;;;6.20;3.60;;;;;;;11.68;100.00;95430.91;4941340;29;20031;-89
2023/03/24 08:04:55;;;;;;;7.38;3.85;;;;;;;11.67;100.00;95431.91;4940082;29;20050;-90
2023/03/24 08:07:43;;;;;;;9.10;4.47;;;;;;;11.73;100.00;95439.06;4940675;29;20098;-90
2023/03/24 08:10:11;;;;;;;7.90;4.30;;;;;;;11.67;100.00;95442.47;4953389;29;20027;-89
2023/03/24 08:12:42;;;;;;;7.27;3.40;;;;;;;11.56;100.00;95449.00;4939588;29;20041;-90
2023/03/24 08:15:08;;;;;;;8.13;3.70;;;;;;;11.56;100.00;95443.72;4928946;29;20046;-89
2023/03/24 08:17:35;;;;;;;6.77;3.73;;;;;;;11.48;100.00;95454.38;4939791;29;20059;-89
2023/03/24 08:20:12;;;;;;;6.80;3.57;;;;;;;11.52;100.00;95454.81;4947263;29;20030;-89
2023/03/24 08:22:44;;;;;;;6.20;3.50;;;;;;;11.39;100.00;95458.09;4923063;29;20394;-88
2023/03/24 08:25:11;;;;;;;6.83;4.27;;;;;;;11.32;100.00;95462.47;4945407;29;20035;-88
2023/03/24 08:27:38;;;;;;;6.60;3.73;;;;;;;11.30;100.00;95464.44;4947063;29;20130;-89
2023/03/24 08:30:12;;;;;;;8.10;3.33;;;;;;;11.25;100.00;95466.84;4964548;28;20035;-91
2023/03/24 08:32:47;;;;;;;7.55;3.83;;;;;;;11.34;100.00;95471.00;4947643;29;20192;-91
2023/03/24 08:35:14;;;;;;;7.10;3.63;;;;;;;11.33;100.00;95469.34;4939307;29;20091;-92
2023/03/24 08:37:44;;;;;;;6.80;3.50;;;;;;;11.25;100.00;95469.47;4942869;29;20036;-91
2023/03/24 08:40:21;;;;;;;8.70;3.93;;;;;;;11.24;100.00;95476.53;4961973;28;20040;-91
2023/03/24 08:42:52;;;;;;;7.83;4.07;;;;;;;11.31;100.00;95471.38;4945156;29;20031;-92
2023/03/24 08:45:19;;;;;;;6.20;3.67;;;;;;;11.25;100.00;95475.53;4940749;29;20118;-92
2023/03/24 08:47:47;;;;;;;5.73;3.30;;;;;;;11.31;100.00;95472.19;4938018;29;20518;-92
2023/03/24 08:50:14;;;;;;;7.30;4.10;;;;;;;11.31;100.00;95469.56;4931518;29;20051;-92
2023/03/24 08:52:40;;;;;;;8.03;5.07;;;;;;;11.46;100.00;95471.34;4950059;29;20047;-92
2023/03/24 08:55:08;;;;;;;5.87;3.50;;;;;;;11.37;100.00;95475.91;4940713;29;20045;-92
2023/03/24 08:57:37;;;;;;;6.13;3.67;;;;;;;11.40;100.00;95470.28;4936876;29;20020;-92
2023/03/24 09:00:17;;;;;;;5.90;3.83;;;;;;;11.45;100.00;95467.91;4936016;29;20027;-92
2023/03/24 09:02:45;;;;;;;7.10;3.70;;;;;;;11.50;100.00;95464.72;4948126;29;20043;-92
2023/03/24 09:05:12;;;;;;;5.80;3.57;;;;;;;11.52;100.00;95457.44;4956656;29;20527;-92
2023/03/24 09:07:38;;;;;;;6.93;3.70;;;;;;;11.57;100.00;95448.00;4946256;29;20034;-92
2023/03/24 09:10:06;;;;;;;6.50;3.17;;;;;;;11.57;100.00;95434.84;4941678;29;20235;-92
2023/03/24 09:12:33;;;;;;;4.80;3.20;;;;;;;11.65;100.00;95419.94;4936581;29;20047;-91
2023/03/24 09:14:59;;;;;;;7.10;3.67;;;;;;;11.58;100.00;95404.06;4944601;29;20039;-92
2023/03/24 09:17:32;;;;;;;6.27;3.20;;;;;;;11.64;100.00;95381.44;4956182;29;20031;-92
2023/03/24 09:20:07;;;;;;;6.10;3.72;;;;;;;11.70;100.00;95349.06;4932954;29;20046;-92
2023/03/24 09:22:36;;;;;;;7.30;3.90;;;;;;;11.76;100.00;95343.06;4954002;29;20035;-92
2023/03/24 09:25:06;;;;;;;6.80;4.17;;;;;;;11.77;100.00;95387.66;4940688;29;20055;-92
2023/03/24 09:27:32;;;;;;;5.30;3.30;;;;;;;11.95;100.00;95399.59;4954541;28;20019;-92
2023/03/24 09:30:24;;;;;;;5.13;2.90;;;;;;;12.08;100.00;95405.00;4947975;28;20035;-92
2023/03/24 09:32:57;;;;;;;5.63;3.20;;;;;;;12.23;100.00;95411.00;4943946;29;20070;-92
2023/03/24 09:35:26;;;;;;;5.47;3.33;;;;;;;12.46;100.00;95425.81;4951909;29;20043;-92
2023/03/24 09:37:53;;;;;;;8.10;5.80;;;;;;;12.42;100.00;95428.00;4945455;29;20031;-92
2023/03/24 09:40:37;;;;;;;6.20;3.27;;;;;;;12.50;100.00;95422.59;4947178;28;20043;-92
2023/03/24 09:43:07;;;;;;;6.73;3.10;;;;;;;12.58;100.00;95420.84;4931040;29;20040;-92
2023/03/24 09:45:37;;;;;;;5.50;3.27;;;;;;;12.65;100.00;95430.44;4953033;29;20058;-92
2023/03/24 09:48:23;;;;;;;5.17;3.00;;;;;;;12.81;100.00;95417.94;4930342;29;20107;-91
2023/03/24 09:50:59;;;;;;;6.03;3.13;;;;;;;12.76;100.00;95415.88;4922659;29;20079;-92
2023/03/24 09:54:01;;;;;;;5.77;2.43;;;;;;;12.91;100.00;95419.25;4948889;29;20478;-92
2023/03/24 09:56:31;;;;;;;4.97;2.33;;;;;;;12.81;100.00;95415.28;4958205;28;20039;-92
2023/03/24 09:59:18;;;;;;;4.27;2.47;;;;;;;12.74;100.00;95392.34;4957291;28;20030;-92
2023/03/24 10:01:44;;;;;;;4.67;2.40;;;;;;;12.80;100.00;95405.75;4958618;28;20031;-92
2023/03/24 10:04:18;;;;;;;3.77;2.10;;;;;;;12.83;100.00;95400.91;4940785;29;20062;-92
2023/03/24 10:06:47;;;;;;;6.60;2.83;;;;;;;13.02;100.00;95404.69;4948433;29;20102;-92
2023/03/24 10:09:28;;;;;;;5.80;2.30;;;;;;;13.07;100.00;95404.09;4938454;29;20082;-92
2023/03/24 10:12:17;;;;;;;3.97;1.97;;;;;;;12.98;100.00;95404.25;4936787;29;20043;-92
2023/03/24 10:18:45;;;;;;;4.57;1.60;;;;;;;13.17;100.00;95394.81;4953531;29;20414;-92
2023/03/24 10:21:21;;;;;;;4.30;2.00;;;;;;;13.56;100.00;95389.94;4866944;29;20052;-92
2023/03/24 10:24:17;;;;;;;3.50;1.40;;;;;;;13.67;100.00;95397.25;4923044;29;20135;-91
2023/03/24 10:27:30;;;;;;;2.27;1.40;;;;;;;13.49;100.00;95397.81;4938399;29;20035;-92
2023/03/24 10:30:11;;;;;;;3.97;1.70;;;;;;;13.85;100.00;95375.59;4963584;28;20026;-92
2023/03/24 10:32:39;;;;;;;3.50;1.90;;;;;;;14.04;100.00;95381.91;4939921;29;20191;-92
2023/03/24 10:35:08;;;;;;;2.17;1.37;;;;;;;14.25;100.00;95376.44;4940984;29;20039;-92
2023/03/24 10:37:36;;;;;;;2.53;1.37;;;;;;;14.26;100.00;95359.53;4941414;29;20075;-91
2023/03/24 10:40:27;;;;;;;3.00;1.60;;;;;;;14.66;100.00;95364.03;4939420;29;20119;-92
2023/03/24 10:42:52;;;;;;;2.07;1.40;;;;;;;14.83;100.00;95367.88;4938239;29;20047;-92
2023/03/24 10:45:38;;;;;;;2.67;1.37;;;;;;;15.33;100.00;95373.44;4938220;29;20049;-92
2023/03/24 10:48:08;;;;;;;2.80;1.40;;;;;;;15.40;100.00;95368.91;4943891;29;20036;-91
2023/03/24 10:50:34;;;;;;;2.50;1.10;;;;;;;15.46;100.00;95351.34;4945700;29;20035;-91
2023/03/24 10:53:08;;;;;;;1.60;1.00;;;;;;;15.05;100.00;95358.63;4941125;29;20074;-91
2023/03/24 10:55:38;;;;;;;1.60;1.10;;;;;;;15.02;100.00;95360.88;4930483;29;20035;-92
2023/03/24 10:58:16;;;;;;;1.70;1.20;;;;;;;14.98;100.00;95349.09;4939659;29;20505;-92
2023/03/24 11:00:44;;;;;;;2.00;1.10;;;;;;;15.09;100.00;95340.53;4940605;29;20184;-91
2023/03/24 11:06:18;;;;;;;2.50;1.30;;;;;;;15.03;100.00;95359.88;4960865;28;20496;-92
2023/03/24 11:08:44;;;;;;;6.30;3.47;;;;;;;14.98;100.00;95367.63;4940193;29;20040;-92
2023/03/24 11:11:31;;;;;;;2.60;1.20;;;;;;;14.88;100.00;95364.59;4937014;29;20545;-92
2023/03/24 11:14:21;;;;;;;3.23;1.40;;;;;;;15.02;100.00;95376.78;4954180;28;20030;-92
2023/03/24 11:16:47;;;;;;;2.47;1.07;;;;;;;15.02;100.00;95377.59;4976228;28;20039;-90
2023/03/24 11:19:21;;;;;;;3.27;1.20;;;;;;;15.09;100.00;95367.00;4952295;28;20039;-92
2023/03/24 11:22:01;;;;;;;2.40;1.30;;;;;;;15.49;100.00;95361.53;4926750;29;20039;-93
2023/03/24 11:24:30;;;;;;;2.33;1.20;;;;;;;15.30;100.00;95361.41;4947888;29;20039;-92
2023/03/24 11:27:01;;;;;;;1.90;1.20;;;;;;;15.17;100.00;95377.34;4943574;29;20019;-91
2023/03/24 11:29:29;;;;;;;2.07;1.30;;;;;;;14.70;100.00;95368.69;4933434;29;20070;-92
2023/03/24 11:31:57;;;;;;;2.27;1.00;;;;;;;15.24;100.00;95375.50;4942699;29;20041;-92
2023/03/24 11:34:33;;;;;;;2.00;1.00;;;;;;;15.15;100.00;95363.50;4960114;28;20065;-92
2023/03/24 11:37:02;;;;;;;3.37;1.33;;;;;;;15.21;100.00;95367.97;4953895;28;20120;-92
2023/03/24 11:39:33;;;;;;;1.77;1.00;;;;;;;15.16;100.00;95354.53;4960671;28;20027;-92
2023/03/24 11:42:11;;;;;;;3.08;0.90;;;;;;;14.97;100.00;95348.28;4963568;28;20027;-92
2023/03/24 11:44:36;;;;;;;1.30;1.00;;;;;;;14.92;100.00;95345.44;4962029;28;20105;-92
2023/03/24 11:47:25;;;;;;;2.07;1.00;;;;;;;14.92;100.00;95344.63;4939940;29;20075;-92
2023/03/24 11:50:06;;;;;;;1.73;0.90;;;;;;;14.64;100.00;95358.13;4946411;29;20039;-92
2023/03/24 11:52:38;;;;;;;2.23;1.17;;;;;;;14.64;100.00;95343.06;4937760;29;20103;-93
2023/03/24 11:55:15;;;;;;;1.50;1.13;;;;;;;14.74;100.00;95359.31;4957699;29;20670;-93
2023/03/24 11:58:15;;;;;;;1.43;1.03;;;;;;;14.99;100.00;95356.84;4936848;29;20090;-92
2023/03/24 12:01:03;;;;;;;1.40;0.80;;;;;;;15.77;100.00;95330.22;4934361;29;20074;-92
2023/03/24 12:03:54;;;;;;;1.63;0.90;;;;;;;16.28;100.00;95344.34;4963205;28;20734;-92
2023/03/24 12:06:54;;;;;;;2.83;1.50;;;;;;;16.65;100.00;95339.13;4954236;29;20486;-92
2023/03/24 12:09:41;;;;;;;1.83;0.80;;;;;;;17.08;100.00;95335.66;4949276;29;20039;-92
2023/03/24 12:12:51;;;;;;;1.00;0.90;;;;;;;17.88;100.00;95338.13;4947501;29;20059;-92
2023/03/24 12:15:54;;;;;;;1.88;0.90;;;;;;;18.18;100.00;95322.13;4957779;29;20038;-92
2023/03/24 12:18:54;;;;;;;4.18;1.17;;;;;;;17.55;100.00;95331.38;4957991;28;20031;-92